Saturday, January 20, 2018, 10:06 AM EST
Back to Local

KACY, Atlantic City International

Location: Absecon, NJ, United States Lat: 39.467
Local Time: 10:06 AM EST (15:06 GMT) Lon: -74.583
Time Zone: US/Eastern Elev: 75 ft

Show me the last for .
Show Coded

Time T Td Feel RH Dir Speed Gust Alt SLP Vis Weather Sky Remarks
2018-01-20 08:54 39 19 34 44 240° 7 - 30.00 30.00 10 CLR None
2018-01-20 07:54 33 19 25 55 230° 9 - 29.98 29.98 10 CLR None
2018-01-20 06:54 32 19 26 58 220° 6 - 29.96 29.96 10 CLR 6-hr Min Temp (7am): 28.9°F
6-hr Max Temp (7am): 37.0°F
2018-01-20 05:54 30 19 25 63 210° 5 - 29.96 29.96 10 CLR None
2018-01-20 04:54 32 19 27 58 240° 5 - 29.97 29.97 10 CLR None
2018-01-20 03:54 35 19 29 51 240° 7 - 29.97 29.96 10 CLR None
2018-01-20 01:54 36 19 31 49 230° 6 - 29.98 29.98 10 CLR None
2018-01-20 00:54 37 19 30 47 220° 9 - 29.99 29.99 10 CLR 6-hr Min Temp (1am): 34.0°F
6-hr Max Temp (1am): 37.9°F
2018-01-19 23:54 37 19 32 47 220° 7 - 30.01 30.01 10 CLR 24-hr Min Temp (12am): 17.1°F
24-hr Max Temp (12am): 48.0°F
2018-01-19 22:54 37 19 31 47 230° 8 - 30.03 30.03 10 CLR None
2018-01-19 21:54 35 21 29 56 220° 7 - 30.03 30.03 10 CLR None
2018-01-19 20:54 35 21 29 56 210° 7 - 30.03 30.03 10 CLR None
2018-01-19 19:54 35 20 30 53 200° 6 - 30.04 30.04 10 CLR None
2018-01-19 18:54 37 18 32 45 210° 6 - 30.04 30.04 10 CLR 6-hr Min Temp (7pm): 36.0°F
6-hr Max Temp (7pm): 48.0°F
2018-01-19 17:54 40 18 36 40 190° 6 - 30.03 30.03 10 CLR None
2018-01-19 16:54 44 17 40 33 250° 7 - 30.03 30.03 10 CLR None
2018-01-19 15:54 46 17 41 30 260° 9 - 30.02 30.02 10 CLR None
2018-01-19 14:54 47 17 39 29 280° 12 24 30.03 30.03 10 CLR None
2018-01-19 13:54 47 17 41 29 280° 14 - 30.03 30.03 10 CLR None
2018-01-19 12:54 45 16 39 30 260° 14 - 30.05 30.05 10 CLR 6-hr Min Temp (1pm): 19.0°F
6-hr Max Temp (1pm): 45.0°F
2018-01-19 11:54 44 16 35 31 290° 16 23 30.07 30.07 10 CLR None
2018-01-19 10:54 42 15 32 33 280° 16 24 30.12 30.11 10 CLR None

Support USWX by starting your Amazon purchase here.